sensor_id;sensor_type;location;lat;lon;timestamp;pressure;altitude;pressure_sealevel;temperature;humidity
34081;BME280;20358;50.272;19.026;2024-02-26T00:02:13;97279.44;;;11.45;48.12
34081;BME280;20358;50.272;19.026;2024-02-26T00:05:21;97274.63;;;11.39;48.45
34081;BME280;20358;50.272;19.026;2024-02-26T00:08:29;97274.81;;;11.36;48.40
34081;BME280;20358;50.272;19.026;2024-02-26T00:11:37;97269.81;;;11.33;48.42
34081;BME280;20358;50.272;19.026;2024-02-26T00:14:47;97271.94;;;11.28;48.71
34081;BME280;20358;50.272;19.026;2024-02-26T00:17:57;97264.38;;;11.23;48.88
34081;BME280;20358;50.272;19.026;2024-02-26T00:21:05;97267.19;;;11.20;48.87
34081;BME280;20358;50.272;19.026;2024-02-26T00:24:17;97268.34;;;11.16;48.83
34081;BME280;20358;50.272;19.026;2024-02-26T00:27:30;97218.97;;;10.74;49.00
34081;BME280;20358;50.272;19.026;2024-02-26T00:30:56;97264.59;;;11.08;49.04
34081;BME280;20358;50.272;19.026;2024-02-26T00:34:14;97256.88;;;10.94;49.34
34081;BME280;20358;50.272;19.026;2024-02-26T00:37:41;97267.31;;;10.94;49.54
34081;BME280;20358;50.272;19.026;2024-02-26T00:40:56;97263.97;;;10.92;49.63
34081;BME280;20358;50.272;19.026;2024-02-26T00:48:02;97268.69;;;10.87;49.73
34081;BME280;20358;50.272;19.026;2024-02-26T00:51:12;97272.03;;;10.89;50.00
34081;BME280;20358;50.272;19.026;2024-02-26T00:54:22;97281.00;;;10.85;50.01
34081;BME280;20358;50.272;19.026;2024-02-26T00:57:32;97277.66;;;10.83;50.05
34081;BME280;20358;50.272;19.026;2024-02-26T01:00:40;97275.03;;;10.83;50.05
34081;BME280;20358;50.272;19.026;2024-02-26T01:03:52;97280.28;;;10.83;50.22
34081;BME280;20358;50.272;19.026;2024-02-26T01:07:03;97276.72;;;10.84;50.18
34081;BME280;20358;50.272;19.026;2024-02-26T01:10:13;97267.31;;;10.81;50.03
34081;BME280;20358;50.272;19.026;2024-02-26T01:13:33;97265.50;;;10.82;50.23
34081;BME280;20358;50.272;19.026;2024-02-26T01:16:45;97263.66;;;10.84;50.31
34081;BME280;20358;50.272;19.026;2024-02-26T01:19:58;97266.06;;;10.87;50.31
34081;BME280;20358;50.272;19.026;2024-02-26T01:23:08;97265.31;;;10.85;50.22
34081;BME280;20358;50.272;19.026;2024-02-26T01:26:17;97270.47;;;10.86;50.51
34081;BME280;20358;50.272;19.026;2024-02-26T01:29:27;97266.06;;;10.87;50.48
34081;BME280;20358;50.272;19.026;2024-02-26T01:32:38;97260.84;;;10.87;50.44
34081;BME280;20358;50.272;19.026;2024-02-26T01:35:56;97257.28;;;10.88;50.47
34081;BME280;20358;50.272;19.026;2024-02-26T01:39:08;97257.06;;;10.91;50.40
34081;BME280;20358;50.272;19.026;2024-02-26T01:42:26;97260.84;;;10.87;50.15
34081;BME280;20358;50.272;19.026;2024-02-26T01:45:37;97255.81;;;10.84;50.23
34081;BME280;20358;50.272;19.026;2024-02-26T01:48:50;97255.06;;;10.82;50.48
34081;BME280;20358;50.272;19.026;2024-02-26T01:52:05;97251.00;;;10.78;50.46
34081;BME280;20358;50.272;19.026;2024-02-26T01:55:20;97252.88;;;10.76;50.38
34081;BME280;20358;50.272;19.026;2024-02-26T01:58:31;97254.75;;;10.74;50.51
34081;BME280;20358;50.272;19.026;2024-02-26T02:01:50;97256.41;;;10.75;50.62
34081;BME280;20358;50.272;19.026;2024-02-26T02:05:05;97255.81;;;10.71;50.86
34081;BME280;20358;50.272;19.026;2024-02-26T02:08:22;97256.09;;;10.67;50.74
34081;BME280;20358;50.272;19.026;2024-02-26T02:11:32;97254.84;;;10.59;50.89
34081;BME280;20358;50.272;19.026;2024-02-26T02:14:43;97252.63;;;10.53;51.16
34081;BME280;20358;50.272;19.026;2024-02-26T02:17:52;97253.66;;;10.51;51.23
34081;BME280;20358;50.272;19.026;2024-02-26T02:21:05;97249.47;;;10.48;51.27
34081;BME280;20358;50.272;19.026;2024-02-26T02:24:13;97260.13;;;10.45;51.31
34081;BME280;20358;50.272;19.026;2024-02-26T02:27:22;97256.97;;;10.40;51.47
34081;BME280;20358;50.272;19.026;2024-02-26T02:30:31;97257.41;;;10.34;51.40
34081;BME280;20358;50.272;19.026;2024-02-26T02:33:41;97251.66;;;10.29;51.47
34081;BME280;20358;50.272;19.026;2024-02-26T02:36:53;97256.34;;;10.24;51.75
34081;BME280;20358;50.272;19.026;2024-02-26T02:40:02;97251.31;;;10.21;51.91
34081;BME280;20358;50.272;19.026;2024-02-26T02:43:19;97252.63;;;10.14;52.20
34081;BME280;20358;50.272;19.026;2024-02-26T02:46:32;97243.28;;;10.10;52.40
34081;BME280;20358;50.272;19.026;2024-02-26T02:49:42;97248.69;;;10.07;52.44
34081;BME280;20358;50.272;19.026;2024-02-26T02:53:03;97250.59;;;10.05;52.47
34081;BME280;20358;50.272;19.026;2024-02-26T02:56:39;97243.91;;;10.01;52.86
34081;BME280;20358;50.272;19.026;2024-02-26T02:59:51;97240.63;;;9.97;53.07
34081;BME280;20358;50.272;19.026;2024-02-26T03:03:02;97242.41;;;9.97;53.01
34081;BME280;20358;50.272;19.026;2024-02-26T03:06:17;97236.75;;;9.90;53.16
34081;BME280;20358;50.272;19.026;2024-02-26T03:09:32;97237.78;;;9.88;53.38
34081;BME280;20358;50.272;19.026;2024-02-26T03:12:43;97235.91;;;9.90;53.08
34081;BME280;20358;50.272;19.026;2024-02-26T03:15:57;97242.78;;;9.91;53.20
34081;BME280;20358;50.272;19.026;2024-02-26T03:19:07;97232.34;;;9.91;53.08
34081;BME280;20358;50.272;19.026;2024-02-26T03:22:16;97239.97;;;9.94;53.13
34081;BME280;20358;50.272;19.026;2024-02-26T03:25:28;97237.28;;;9.95;52.99
34081;BME280;20358;50.272;19.026;2024-02-26T03:28:40;97234.56;;;9.97;52.87
34081;BME280;20358;50.272;19.026;2024-02-26T03:31:50;97228.41;;;9.98;52.73
34081;BME280;20358;50.272;19.026;2024-02-26T03:34:59;97240.53;;;9.99;52.85
34081;BME280;20358;50.272;19.026;2024-02-26T03:38:14;97231.75;;;10.00;52.75
34081;BME280;20358;50.272;19.026;2024-02-26T03:41:37;97236.06;;;10.01;52.63
34081;BME280;20358;50.272;19.026;2024-02-26T03:44:50;97229.03;;;10.02;52.48
34081;BME280;20358;50.272;19.026;2024-02-26T03:48:00;97229.88;;;10.02;52.47
34081;BME280;20358;50.272;19.026;2024-02-26T03:51:18;97217.78;;;10.01;52.36
34081;BME280;20358;50.272;19.026;2024-02-26T03:54:27;97223.00;;;10.01;52.52
34081;BME280;20358;50.272;19.026;2024-02-26T03:57:40;97210.88;;;10.00;52.49
34081;BME280;20358;50.272;19.026;2024-02-26T04:00:51;97221.50;;;9.97;52.51
34081;BME280;20358;50.272;19.026;2024-02-26T04:04:06;97205.19;;;9.93;52.75
34081;BME280;20358;50.272;19.026;2024-02-26T04:07:15;97203.75;;;9.89;52.65
34081;BME280;20358;50.272;19.026;2024-02-26T04:10:25;97204.03;;;9.85;52.75
34081;BME280;20358;50.272;19.026;2024-02-26T04:13:40;97199.94;;;9.81;52.99
34081;BME280;20358;50.272;19.026;2024-02-26T04:16:54;97200.97;;;9.78;53.00
34081;BME280;20358;50.272;19.026;2024-02-26T04:20:03;97193.44;;;9.74;52.84
34081;BME280;20358;50.272;19.026;2024-02-26T04:23:14;97172.81;;;9.57;53.26
34081;BME280;20358;50.272;19.026;2024-02-26T04:26:36;97197.19;;;9.70;53.43
34081;BME280;20358;50.272;19.026;2024-02-26T04:29:54;97191.97;;;9.70;53.30
34081;BME280;20358;50.272;19.026;2024-02-26T04:33:06;97200.53;;;9.72;53.58
34081;BME280;20358;50.272;19.026;2024-02-26T04:36:21;97192.59;;;9.73;53.62
34081;BME280;20358;50.272;19.026;2024-02-26T04:39:36;97196.97;;;9.73;53.34
34081;BME280;20358;50.272;19.026;2024-02-26T04:42:54;97193.44;;;9.74;53.49
34081;BME280;20358;50.272;19.026;2024-02-26T04:46:08;97192.41;;;9.76;53.12
34081;BME280;20358;50.272;19.026;2024-02-26T04:49:22;97188.88;;;9.77;52.89
34081;BME280;20358;50.272;19.026;2024-02-26T04:52:41;97188.88;;;9.77;52.68
34081;BME280;20358;50.272;19.026;2024-02-26T04:55:51;97181.97;;;9.76;52.70
34081;BME280;20358;50.272;19.026;2024-02-26T04:59:06;97174.25;;;9.75;52.84
34081;BME280;20358;50.272;19.026;2024-02-26T05:02:18;97181.31;;;9.73;52.78
34081;BME280;20358;50.272;19.026;2024-02-26T05:05:26;97171.31;;;9.67;52.73
34081;BME280;20358;50.272;19.026;2024-02-26T05:08:36;97170.84;;;9.60;52.99
34081;BME280;20358;50.272;19.026;2024-02-26T05:11:47;97181.47;;;9.57;52.98
34081;BME280;20358;50.272;19.026;2024-02-26T05:14:55;97182.19;;;9.47;53.13
34081;BME280;20358;50.272;19.026;2024-02-26T05:18:07;97190.19;;;9.44;53.18
34081;BME280;20358;50.272;19.026;2024-02-26T05:21:16;97192.03;;;9.42;53.15
34081;BME280;20358;50.272;19.026;2024-02-26T05:24:25;97195.59;;;9.41;53.13
34081;BME280;20358;50.272;19.026;2024-02-26T05:27:33;97193.06;;;9.39;53.13
34081;BME280;20358;50.272;19.026;2024-02-26T05:30:43;97192.19;;;9.26;53.09
34081;BME280;20358;50.272;19.026;2024-02-26T05:33:53;97197.28;;;9.13;53.54
34081;BME280;20358;50.272;19.026;2024-02-26T05:37:04;97206.25;;;9.09;54.06
34081;BME280;20358;50.272;19.026;2024-02-26T05:40:15;97202.50;;;9.13;53.69
34081;BME280;20358;50.272;19.026;2024-02-26T05:43:27;97200.66;;;9.15;53.60
34081;BME280;20358;50.272;19.026;2024-02-26T05:46:36;97207.53;;;9.16;53.37
34081;BME280;20358;50.272;19.026;2024-02-26T05:49:49;97208.38;;;9.17;53.81
34081;BME280;20358;50.272;19.026;2024-02-26T05:53:00;97211.72;;;9.19;53.56
34081;BME280;20358;50.272;19.026;2024-02-26T05:56:08;97219.25;;;9.23;53.34
34081;BME280;20358;50.272;19.026;2024-02-26T05:59:15;97216.66;;;9.23;53.78
34081;BME280;20358;50.272;19.026;2024-02-26T06:02:23;97224.28;;;9.26;53.73
34081;BME280;20358;50.272;19.026;2024-02-26T06:05:33;97218.88;;;9.29;53.67
34081;BME280;20358;50.272;19.026;2024-02-26T06:08:40;97225.50;;;9.21;53.81
34081;BME280;20358;50.272;19.026;2024-02-26T06:11:48;97216.75;;;9.22;54.15
34081;BME280;20358;50.272;19.026;2024-02-26T06:14:55;97226.28;;;9.23;54.10
34081;BME280;20358;50.272;19.026;2024-02-26T06:18:05;97223.19;;;9.30;54.17
34081;BME280;20358;50.272;19.026;2024-02-26T06:21:18;97233.97;;;9.39;54.02
34081;BME280;20358;50.272;19.026;2024-02-26T06:24:26;97235.44;;;9.43;53.99
34081;BME280;20358;50.272;19.026;2024-02-26T06:27:34;97236.38;;;9.42;54.09
34081;BME280;20358;50.272;19.026;2024-02-26T06:30:42;97239.56;;;9.47;54.12
34081;BME280;20358;50.272;19.026;2024-02-26T06:33:49;97240.13;;;9.52;54.11
34081;BME280;20358;50.272;19.026;2024-02-26T06:37:00;97243.28;;;9.57;54.08
34081;BME280;20358;50.272;19.026;2024-02-26T06:40:08;97243.63;;;9.65;54.11
34081;BME280;20358;50.272;19.026;2024-02-26T06:43:16;97233.50;;;9.73;53.77
34081;BME280;20358;50.272;19.026;2024-02-26T06:46:26;97231.06;;;9.84;53.62
34081;BME280;20358;50.272;19.026;2024-02-26T06:49:34;97241.13;;;9.90;53.58
34081;BME280;20358;50.272;19.026;2024-02-26T06:52:44;97195.31;;;9.72;53.59
34081;BME280;20358;50.272;19.026;2024-02-26T06:55:52;97235.94;;;10.03;53.19
34081;BME280;20358;50.272;19.026;2024-02-26T06:58:59;97239.09;;;10.08;52.91
34081;BME280;20358;50.272;19.026;2024-02-26T07:02:06;97241.59;;;10.09;53.05
34081;BME280;20358;50.272;19.026;2024-02-26T07:05:13;97246.47;;;10.15;52.79
34081;BME280;20358;50.272;19.026;2024-02-26T07:08:24;97251.84;;;10.26;52.72
34081;BME280;20358;50.272;19.026;2024-02-26T07:11:30;97248.84;;;10.32;52.46
34081;BME280;20358;50.272;19.026;2024-02-26T07:14:37;97244.69;;;10.42;52.77
34081;BME280;20358;50.272;19.026;2024-02-26T07:17:44;97249.47;;;10.48;52.47
34081;BME280;20358;50.272;19.026;2024-02-26T07:20:53;97242.16;;;10.53;52.34
34081;BME280;20358;50.272;19.026;2024-02-26T07:24:03;97253.41;;;10.68;52.46
34081;BME280;20358;50.272;19.026;2024-02-26T07:27:12;97252.69;;;10.79;52.30
34081;BME280;20358;50.272;19.026;2024-02-26T07:30:21;97250.38;;;10.87;52.18
34081;BME280;20358;50.272;19.026;2024-02-26T07:33:30;97247.84;;;10.98;52.37
34081;BME280;20358;50.272;19.026;2024-02-26T07:36:38;97243.66;;;11.08;51.94
34081;BME280;20358;50.272;19.026;2024-02-26T07:39:49;97246.59;;;11.16;52.06
34081;BME280;20358;50.272;19.026;2024-02-26T07:42:56;97251.09;;;11.27;51.91
34081;BME280;20358;50.272;19.026;2024-02-26T07:46:04;97248.66;;;11.36;52.02
34081;BME280;20358;50.272;19.026;2024-02-26T07:49:12;97254.72;;;11.49;52.06
34081;BME280;20358;50.272;19.026;2024-02-26T07:52:20;97241.72;;;11.60;51.66
34081;BME280;20358;50.272;19.026;2024-02-26T07:55:31;97241.91;;;11.70;51.28
34081;BME280;20358;50.272;19.026;2024-02-26T07:58:42;97238.31;;;11.83;51.51
34081;BME280;20358;50.272;19.026;2024-02-26T08:01:52;97245.91;;;11.99;51.24
34081;BME280;20358;50.272;19.026;2024-02-26T08:05:02;97248.25;;;12.15;51.20
34081;BME280;20358;50.272;19.026;2024-02-26T08:08:10;97246.91;;;12.33;50.91
34081;BME280;20358;50.272;19.026;2024-02-26T08:11:21;97242.22;;;12.49;50.57
34081;BME280;20358;50.272;19.026;2024-02-26T08:14:41;97242.97;;;12.62;50.26
34081;BME280;20358;50.272;19.026;2024-02-26T08:17:49;97245.63;;;12.73;50.05
34081;BME280;20358;50.272;19.026;2024-02-26T08:20:55;97243.22;;;12.81;49.88
34081;BME280;20358;50.272;19.026;2024-02-26T08:24:04;97246.59;;;12.94;49.85
34081;BME280;20358;50.272;19.026;2024-02-26T08:27:14;97243.41;;;13.02;49.50
34081;BME280;20358;50.272;19.026;2024-02-26T08:30:24;97251.69;;;13.09;49.43
34081;BME280;20358;50.272;19.026;2024-02-26T08:33:31;97247.84;;;13.13;49.26
34081;BME280;20358;50.272;19.026;2024-02-26T08:36:41;97249.66;;;13.23;49.29
34081;BME280;20358;50.272;19.026;2024-02-26T08:40:14;97249.91;;;13.31;49.13
34081;BME280;20358;50.272;19.026;2024-02-26T08:43:29;97251.22;;;13.37;48.81
34081;BME280;20358;50.272;19.026;2024-02-26T08:46:40;97247.66;;;13.38;48.86
34081;BME280;20358;50.272;19.026;2024-02-26T08:49:52;97250.50;;;13.46;49.05
34081;BME280;20358;50.272;19.026;2024-02-26T08:53:00;97243.59;;;13.56;48.74
34081;BME280;20358;50.272;19.026;2024-02-26T08:56:10;97250.72;;;13.65;48.77
34081;BME280;20358;50.272;19.026;2024-02-26T08:59:24;97244.75;;;13.74;48.51
34081;BME280;20358;50.272;19.026;2024-02-26T09:02:33;97246.63;;;13.83;48.51
34081;BME280;20358;50.272;19.026;2024-02-26T09:05:41;97241.22;;;13.96;48.68
34081;BME280;20358;50.272;19.026;2024-02-26T09:08:49;97245.88;;;14.03;48.01
34081;BME280;20358;50.272;19.026;2024-02-26T09:11:57;97245.84;;;14.14;48.10
34081;BME280;20358;50.272;19.026;2024-02-26T09:15:09;97235.31;;;14.25;47.75
34081;BME280;20358;50.272;19.026;2024-02-26T09:18:16;97239.34;;;14.29;47.60
34081;BME280;20358;50.272;19.026;2024-02-26T09:21:23;97232.91;;;14.34;47.50
34081;BME280;20358;50.272;19.026;2024-02-26T09:24:31;97237.53;;;14.41;47.40
34081;BME280;20358;50.272;19.026;2024-02-26T09:27:40;97237.16;;;14.46;47.33
34081;BME280;20358;50.272;19.026;2024-02-26T09:30:52;97232.94;;;14.54;47.32
34081;BME280;20358;50.272;19.026;2024-02-26T09:34:00;97233.72;;;14.66;47.19
34081;BME280;20358;50.272;19.026;2024-02-26T09:37:08;97234.88;;;14.73;47.19
34081;BME280;20358;50.272;19.026;2024-02-26T09:40:25;97237.44;;;14.84;47.01
34081;BME280;20358;50.272;19.026;2024-02-26T09:43:35;97231.16;;;14.96;46.64
34081;BME280;20358;50.272;19.026;2024-02-26T09:46:47;97238.91;;;15.18;46.42
34081;BME280;20358;50.272;19.026;2024-02-26T09:50:00;97239.94;;;15.36;46.21
34081;BME280;20358;50.272;19.026;2024-02-26T09:53:10;97246.72;;;15.60;45.81
34081;BME280;20358;50.272;19.026;2024-02-26T09:56:18;97239.31;;;15.84;45.44
34081;BME280;20358;50.272;19.026;2024-02-26T09:59:28;97233.81;;;16.06;44.94
34081;BME280;20358;50.272;19.026;2024-02-26T10:02:46;97236.34;;;16.27;45.09
34081;BME280;20358;50.272;19.026;2024-02-26T10:05:55;97229.97;;;16.48;44.63
34081;BME280;20358;50.272;19.026;2024-02-26T10:09:03;97231.81;;;16.67;44.06
34081;BME280;20358;50.272;19.026;2024-02-26T10:12:16;97229.28;;;16.85;43.83
34081;BME280;20358;50.272;19.026;2024-02-26T10:15:26;97227.88;;;17.00;42.98
34081;BME280;20358;50.272;19.026;2024-02-26T10:18:51;97230.47;;;17.19;42.63
34081;BME280;20358;50.272;19.026;2024-02-26T10:22:03;97240.56;;;17.33;42.60
34081;BME280;20358;50.272;19.026;2024-02-26T10:25:11;97228.84;;;17.55;42.27
34081;BME280;20358;50.272;19.026;2024-02-26T10:28:24;97226.13;;;17.74;41.82
34081;BME280;20358;50.272;19.026;2024-02-26T10:31:42;97225.16;;;17.92;41.28
34081;BME280;20358;50.272;19.026;2024-02-26T10:34:58;97223.31;;;18.03;40.84
34081;BME280;20358;50.272;19.026;2024-02-26T10:38:08;97217.28;;;18.10;40.65
34081;BME280;20358;50.272;19.026;2024-02-26T10:41:25;97147.63;;;17.74;40.54
34081;BME280;20358;50.272;19.026;2024-02-26T10:44:34;97220.13;;;18.17;40.32
34081;BME280;20358;50.272;19.026;2024-02-26T10:47:41;97207.53;;;18.28;40.46
34081;BME280;20358;50.272;19.026;2024-02-26T10:50:52;97210.78;;;18.40;40.08
34081;BME280;20358;50.272;19.026;2024-02-26T10:54:04;97213.22;;;18.51;40.03
34081;BME280;20358;50.272;19.026;2024-02-26T10:57:18;97211.03;;;18.64;40.07
34081;BME280;20358;50.272;19.026;2024-02-26T11:00:27;97213.13;;;18.78;40.00
34081;BME280;20358;50.272;19.026;2024-02-26T11:03:36;97214.91;;;18.95;39.60
34081;BME280;20358;50.272;19.026;2024-02-26T11:06:49;97210.03;;;19.08;39.61
34081;BME280;20358;50.272;19.026;2024-02-26T11:10:00;97212.03;;;19.14;39.19
34081;BME280;20358;50.272;19.026;2024-02-26T11:13:15;97211.44;;;19.20;39.02
34081;BME280;20358;50.272;19.026;2024-02-26T11:16:26;97218.47;;;19.30;39.24
34081;BME280;20358;50.272;19.026;2024-02-26T11:19:41;97219.56;;;19.45;39.53
34081;BME280;20358;50.272;19.026;2024-02-26T11:22:58;97218.25;;;19.49;38.90
34081;BME280;20358;50.272;19.026;2024-02-26T11:26:07;97221.25;;;19.54;38.86
34081;BME280;20358;50.272;19.026;2024-02-26T11:29:22;97208.34;;;19.59;38.63
34081;BME280;20358;50.272;19.026;2024-02-26T11:32:34;97212.00;;;19.58;38.65
34081;BME280;20358;50.272;19.026;2024-02-26T11:35:46;97214.34;;;19.69;38.83
34081;BME280;20358;50.272;19.026;2024-02-26T11:38:55;97206.41;;;19.69;38.29
34081;BME280;20358;50.272;19.026;2024-02-26T11:42:08;97202.44;;;19.73;38.49
34081;BME280;20358;50.272;19.026;2024-02-26T11:49:30;97197.88;;;19.91;38.54
34081;BME280;20358;50.272;19.026;2024-02-26T11:52:39;97202.38;;;19.99;38.70
34081;BME280;20358;50.272;19.026;2024-02-26T11:56:20;97203.56;;;20.04;38.34
34081;BME280;20358;50.272;19.026;2024-02-26T11:59:44;97207.56;;;20.16;38.12
34081;BME280;20358;50.272;19.026;2024-02-26T12:02:55;97205.25;;;20.21;38.09
34081;BME280;20358;50.272;19.026;2024-02-26T12:06:05;97206.63;;;20.25;37.77
34081;BME280;20358;50.272;19.026;2024-02-26T12:09:36;97202.28;;;20.24;37.65
34081;BME280;20358;50.272;19.026;2024-02-26T12:12:47;97133.84;;;19.78;37.81
34081;BME280;20358;50.272;19.026;2024-02-26T12:16:00;97199.56;;;20.08;37.76
34081;BME280;20358;50.272;19.026;2024-02-26T12:19:09;97203.88;;;20.01;38.15
34081;BME280;20358;50.272;19.026;2024-02-26T12:22:17;97198.41;;;19.95;38.23
34081;BME280;20358;50.272;19.026;2024-02-26T12:25:31;97203.50;;;19.88;38.18
34081;BME280;20358;50.272;19.026;2024-02-26T12:28:43;97197.66;;;19.85;38.65
34081;BME280;20358;50.272;19.026;2024-02-26T12:31:51;97194.84;;;19.78;38.62
34081;BME280;20358;50.272;19.026;2024-02-26T12:35:05;97198.78;;;19.74;38.69
34081;BME280;20358;50.272;19.026;2024-02-26T12:38:14;97197.63;;;19.68;38.72
34081;BME280;20358;50.272;19.026;2024-02-26T12:41:23;97191.81;;;19.65;38.93
34081;BME280;20358;50.272;19.026;2024-02-26T12:44:37;97202.06;;;19.60;38.82
34081;BME280;20358;50.272;19.026;2024-02-26T12:47:46;97201.72;;;19.55;38.93
34081;BME280;20358;50.272;19.026;2024-02-26T12:50:57;97210.94;;;19.51;39.03
34081;BME280;20358;50.272;19.026;2024-02-26T12:54:36;97212.94;;;19.49;39.05
34081;BME280;20358;50.272;19.026;2024-02-26T12:57:47;97207.31;;;19.52;39.32
34081;BME280;20358;50.272;19.026;2024-02-26T13:01:00;97212.63;;;19.52;39.38
34081;BME280;20358;50.272;19.026;2024-02-26T13:04:10;97207.16;;;19.53;39.38
34081;BME280;20358;50.272;19.026;2024-02-26T13:07:19;97203.34;;;19.56;39.36
34081;BME280;20358;50.272;19.026;2024-02-26T13:10:27;97213.97;;;19.56;39.23
34081;BME280;20358;50.272;19.026;2024-02-26T13:13:38;97209.00;;;19.53;38.99
34081;BME280;20358;50.272;19.026;2024-02-26T13:16:58;97207.00;;;19.55;39.11
34081;BME280;20358;50.272;19.026;2024-02-26T13:20:13;97220.09;;;19.56;39.29
34081;BME280;20358;50.272;19.026;2024-02-26T13:23:35;97203.03;;;19.59;38.88
34081;BME280;20358;50.272;19.026;2024-02-26T13:26:46;97201.88;;;19.61;38.81
34081;BME280;20358;50.272;19.026;2024-02-26T13:30:08;97204.41;;;19.63;38.92
34081;BME280;20358;50.272;19.026;2024-02-26T13:33:24;97201.09;;;19.61;39.04
34081;BME280;20358;50.272;19.026;2024-02-26T13:36:44;97201.75;;;19.63;38.71
34081;BME280;20358;50.272;19.026;2024-02-26T13:39:55;97200.06;;;19.62;38.92
34081;BME280;20358;50.272;19.026;2024-02-26T13:43:04;97198.09;;;19.64;38.99
34081;BME280;20358;50.272;19.026;2024-02-26T13:46:14;97201.44;;;19.66;38.88
34081;BME280;20358;50.272;19.026;2024-02-26T13:49:24;97195.66;;;19.70;39.00
34081;BME280;20358;50.272;19.026;2024-02-26T13:52:31;97198.66;;;19.75;39.19
34081;BME280;20358;50.272;19.026;2024-02-26T13:55:40;97182.03;;;19.65;38.68
34081;BME280;20358;50.272;19.026;2024-02-26T13:58:49;97197.50;;;19.78;39.30
34081;BME280;20358;50.272;19.026;2024-02-26T14:01:56;97201.81;;;19.79;39.24
34081;BME280;20358;50.272;19.026;2024-02-26T14:05:07;97205.63;;;19.76;39.03
34081;BME280;20358;50.272;19.026;2024-02-26T14:08:14;97201.81;;;19.79;39.42
34081;BME280;20358;50.272;19.026;2024-02-26T14:11:21;97210.09;;;19.76;39.49
34081;BME280;20358;50.272;19.026;2024-02-26T14:14:28;97202.97;;;19.76;39.92
34081;BME280;20358;50.272;19.026;2024-02-26T14:17:40;97203.47;;;19.80;39.97
34081;BME280;20358;50.272;19.026;2024-02-26T14:20:51;97202.97;;;19.85;39.97
34081;BME280;20358;50.272;19.026;2024-02-26T14:24:06;97135.09;;;19.50;40.04
34081;BME280;20358;50.272;19.026;2024-02-26T14:27:14;97202.00;;;19.86;40.05
34081;BME280;20358;50.272;19.026;2024-02-26T14:30:22;97204.66;;;19.86;40.25
34081;BME280;20358;50.272;19.026;2024-02-26T14:33:29;97202.16;;;19.84;40.36
34081;BME280;20358;50.272;19.026;2024-02-26T14:36:39;97201.66;;;19.80;40.52
34081;BME280;20358;50.272;19.026;2024-02-26T14:39:47;97200.81;;;19.80;40.70
34081;BME280;20358;50.272;19.026;2024-02-26T14:42:55;97202.81;;;19.78;40.83
34081;BME280;20358;50.272;19.026;2024-02-26T14:46:04;97201.09;;;19.69;40.78
34081;BME280;20358;50.272;19.026;2024-02-26T14:49:11;97209.03;;;19.61;41.14
34081;BME280;20358;50.272;19.026;2024-02-26T14:52:22;97217.63;;;19.55;41.15
34081;BME280;20358;50.272;19.026;2024-02-26T14:55:29;97214.31;;;19.53;41.17
34081;BME280;20358;50.272;19.026;2024-02-26T14:58:39;97165.06;;;19.16;41.29
34081;BME280;20358;50.272;19.026;2024-02-26T15:01:47;97216.59;;;19.48;41.46
34081;BME280;20358;50.272;19.026;2024-02-26T15:04:53;97219.56;;;19.45;41.56
34081;BME280;20358;50.272;19.026;2024-02-26T15:08:05;97211.09;;;19.41;41.92
34081;BME280;20358;50.272;19.026;2024-02-26T15:11:13;97215.72;;;19.39;41.99
34081;BME280;20358;50.272;19.026;2024-02-26T15:14:21;97209.50;;;19.31;42.24
34081;BME280;20358;50.272;19.026;2024-02-26T15:17:28;97207.16;;;19.28;42.16
34081;BME280;20358;50.272;19.026;2024-02-26T15:20:38;97207.63;;;19.23;42.31
34081;BME280;20358;50.272;19.026;2024-02-26T15:23:49;97208.78;;;19.20;42.63
34081;BME280;20358;50.272;19.026;2024-02-26T15:27:10;97216.06;;;19.18;42.64
34081;BME280;20358;50.272;19.026;2024-02-26T15:30:20;97213.88;;;19.14;42.53
34081;BME280;20358;50.272;19.026;2024-02-26T15:33:30;97218.66;;;19.10;42.73
34081;BME280;20358;50.272;19.026;2024-02-26T15:36:37;97218.97;;;19.07;42.86
34081;BME280;20358;50.272;19.026;2024-02-26T15:39:53;97209.50;;;19.05;43.12
34081;BME280;20358;50.272;19.026;2024-02-26T15:43:04;97222.91;;;19.03;43.06
34081;BME280;20358;50.272;19.026;2024-02-26T15:46:18;97228.22;;;19.03;43.23
34081;BME280;20358;50.272;19.026;2024-02-26T15:49:27;97229.88;;;19.04;43.04
34081;BME280;20358;50.272;19.026;2024-02-26T15:52:36;97233.50;;;19.03;43.14
34081;BME280;20358;50.272;19.026;2024-02-26T15:55:47;97230.16;;;19.01;43.08
34081;BME280;20358;50.272;19.026;2024-02-26T15:58:56;97232.44;;;18.96;43.38
34081;BME280;20358;50.272;19.026;2024-02-26T16:02:04;97234.72;;;18.91;43.37
34081;BME280;20358;50.272;19.026;2024-02-26T16:05:13;97233.03;;;18.82;43.20
34081;BME280;20358;50.272;19.026;2024-02-26T16:08:22;97238.25;;;18.74;43.44
34081;BME280;20358;50.272;19.026;2024-02-26T16:11:33;97243.16;;;18.69;43.42
34081;BME280;20358;50.272;19.026;2024-02-26T16:14:47;97238.34;;;18.65;43.45
34081;BME280;20358;50.272;19.026;2024-02-26T16:17:57;97245.06;;;18.59;43.44
34081;BME280;20358;50.272;19.026;2024-02-26T16:21:07;97241.66;;;18.49;43.72
34081;BME280;20358;50.272;19.026;2024-02-26T16:24:16;97255.75;;;18.40;43.90
34081;BME280;20358;50.272;19.026;2024-02-26T16:27:29;97263.03;;;18.38;43.97
34081;BME280;20358;50.272;19.026;2024-02-26T16:30:46;97268.91;;;18.32;44.04
34081;BME280;20358;50.272;19.026;2024-02-26T16:33:55;97269.91;;;18.31;43.89
34081;BME280;20358;50.272;19.026;2024-02-26T16:37:14;97274.50;;;18.29;44.23
34081;BME280;20358;50.272;19.026;2024-02-26T16:40:30;97278.81;;;18.30;44.19
34081;BME280;20358;50.272;19.026;2024-02-26T16:43:48;97283.13;;;18.31;44.21
34081;BME280;20358;50.272;19.026;2024-02-26T16:47:00;97283.44;;;18.28;44.12
34081;BME280;20358;50.272;19.026;2024-02-26T16:50:14;97288.13;;;18.34;44.01
34081;BME280;20358;50.272;19.026;2024-02-26T16:53:26;97290.91;;;18.32;44.00